sensor_id;sensor_type;location;lat;lon;timestamp;P1;durP1;ratioP1;P2;durP2;ratioP2
35632;SDS011;21754;48.216;-1.628;2024-01-06T00:01:51;3.72;;;3.33;;
35632;SDS011;21754;48.216;-1.628;2024-01-06T00:04:18;6.28;;;3.13;;
35632;SDS011;21754;48.216;-1.628;2024-01-06T00:06:44;4.75;;;3.88;;
35632;SDS011;21754;48.216;-1.628;2024-01-06T00:09:10;7.25;;;3.40;;
35632;SDS011;21754;48.216;-1.628;2024-01-06T00:11:36;2.72;;;2.35;;
35632;SDS011;21754;48.216;-1.628;2024-01-06T00:14:02;12.00;;;3.25;;
35632;SDS011;21754;48.216;-1.628;2024-01-06T00:16:28;3.05;;;2.50;;
35632;SDS011;21754;48.216;-1.628;2024-01-06T00:18:54;3.05;;;2.13;;
35632;SDS011;21754;48.216;-1.628;2024-01-06T00:21:19;3.20;;;2.38;;
35632;SDS011;21754;48.216;-1.628;2024-01-06T00:23:45;3.85;;;2.78;;
35632;SDS011;21754;48.216;-1.628;2024-01-06T00:26:11;3.58;;;1.85;;
35632;SDS011;21754;48.216;-1.628;2024-01-06T00:28:38;1.85;;;1.75;;
35632;SDS011;21754;48.216;-1.628;2024-01-06T00:31:04;5.78;;;3.15;;
35632;SDS011;21754;48.216;-1.628;2024-01-06T00:33:31;3.42;;;2.40;;
35632;SDS011;21754;48.216;-1.628;2024-01-06T00:35:57;7.30;;;1.77;;
35632;SDS011;21754;48.216;-1.628;2024-01-06T00:38:23;3.85;;;2.45;;
35632;SDS011;21754;48.216;-1.628;2024-01-06T00:40:49;7.10;;;3.05;;
35632;SDS011;21754;48.216;-1.628;2024-01-06T00:43:15;5.43;;;2.38;;
35632;SDS011;21754;48.216;-1.628;2024-01-06T00:45:41;5.22;;;2.22;;
35632;SDS011;21754;48.216;-1.628;2024-01-06T00:48:07;2.70;;;2.38;;
35632;SDS011;21754;48.216;-1.628;2024-01-06T00:50:33;2.97;;;2.72;;
35632;SDS011;21754;48.216;-1.628;2024-01-06T00:52:59;7.80;;;3.42;;
35632;SDS011;21754;48.216;-1.628;2024-01-06T00:55:24;3.45;;;2.63;;
35632;SDS011;21754;48.216;-1.628;2024-01-06T00:57:51;5.20;;;2.75;;
35632;SDS011;21754;48.216;-1.628;2024-01-06T01:00:16;3.83;;;2.65;;
35632;SDS011;21754;48.216;-1.628;2024-01-06T01:02:42;4.88;;;2.47;;
35632;SDS011;21754;48.216;-1.628;2024-01-06T01:05:08;3.65;;;2.60;;
35632;SDS011;21754;48.216;-1.628;2024-01-06T01:07:35;4.97;;;2.17;;
35632;SDS011;21754;48.216;-1.628;2024-01-06T01:10:01;10.68;;;2.92;;
35632;SDS011;21754;48.216;-1.628;2024-01-06T01:12:27;4.30;;;2.58;;
35632;SDS011;21754;48.216;-1.628;2024-01-06T01:14:53;5.63;;;2.42;;
35632;SDS011;21754;48.216;-1.628;2024-01-06T01:17:19;3.55;;;2.78;;
35632;SDS011;21754;48.216;-1.628;2024-01-06T01:19:45;7.07;;;2.38;;
35632;SDS011;21754;48.216;-1.628;2024-01-06T01:22:11;4.68;;;1.80;;
35632;SDS011;21754;48.216;-1.628;2024-01-06T01:24:37;7.80;;;3.40;;
35632;SDS011;21754;48.216;-1.628;2024-01-06T01:27:04;3.72;;;2.65;;
35632;SDS011;21754;48.216;-1.628;2024-01-06T01:29:30;12.25;;;2.85;;
35632;SDS011;21754;48.216;-1.628;2024-01-06T01:31:56;2.40;;;2.20;;
35632;SDS011;21754;48.216;-1.628;2024-01-06T01:34:22;3.45;;;2.05;;
35632;SDS011;21754;48.216;-1.628;2024-01-06T01:36:48;2.45;;;1.80;;
35632;SDS011;21754;48.216;-1.628;2024-01-06T01:39:14;2.53;;;1.73;;
35632;SDS011;21754;48.216;-1.628;2024-01-06T01:41:40;5.35;;;2.45;;
35632;SDS011;21754;48.216;-1.628;2024-01-06T01:44:06;1.67;;;1.52;;
35632;SDS011;21754;48.216;-1.628;2024-01-06T01:46:32;3.25;;;2.40;;
35632;SDS011;21754;48.216;-1.628;2024-01-06T01:49:00;2.65;;;1.60;;
35632;SDS011;21754;48.216;-1.628;2024-01-06T01:51:27;2.72;;;2.53;;
35632;SDS011;21754;48.216;-1.628;2024-01-06T01:53:53;4.90;;;2.33;;
35632;SDS011;21754;48.216;-1.628;2024-01-06T01:56:19;8.43;;;2.60;;
35632;SDS011;21754;48.216;-1.628;2024-01-06T01:58:46;4.13;;;2.28;;
35632;SDS011;21754;48.216;-1.628;2024-01-06T02:01:12;3.20;;;2.15;;
35632;SDS011;21754;48.216;-1.628;2024-01-06T02:03:40;2.53;;;1.98;;
35632;SDS011;21754;48.216;-1.628;2024-01-06T02:06:08;5.20;;;1.73;;
35632;SDS011;21754;48.216;-1.628;2024-01-06T02:08:34;10.27;;;1.85;;
35632;SDS011;21754;48.216;-1.628;2024-01-06T02:11:00;3.25;;;1.58;;
35632;SDS011;21754;48.216;-1.628;2024-01-06T02:13:33;3.70;;;1.67;;
35632;SDS011;21754;48.216;-1.628;2024-01-06T02:16:00;3.65;;;1.35;;
35632;SDS011;21754;48.216;-1.628;2024-01-06T02:18:26;3.92;;;1.50;;
35632;SDS011;21754;48.216;-1.628;2024-01-06T02:20:52;2.63;;;1.48;;
35632;SDS011;21754;48.216;-1.628;2024-01-06T02:23:18;7.13;;;1.05;;
35632;SDS011;21754;48.216;-1.628;2024-01-06T02:25:44;5.57;;;1.30;;
35632;SDS011;21754;48.216;-1.628;2024-01-06T02:28:10;0.80;;;0.80;;
35632;SDS011;21754;48.216;-1.628;2024-01-06T02:30:36;3.83;;;1.20;;
35632;SDS011;21754;48.216;-1.628;2024-01-06T02:33:02;2.58;;;1.33;;
35632;SDS011;21754;48.216;-1.628;2024-01-06T02:35:30;2.25;;;1.40;;
35632;SDS011;21754;48.216;-1.628;2024-01-06T02:37:56;1.85;;;0.95;;
35632;SDS011;21754;48.216;-1.628;2024-01-06T02:40:22;0.70;;;0.70;;
35632;SDS011;21754;48.216;-1.628;2024-01-06T02:42:48;0.80;;;0.80;;
35632;SDS011;21754;48.216;-1.628;2024-01-06T02:45:14;1.45;;;1.27;;
35632;SDS011;21754;48.216;-1.628;2024-01-06T02:47:40;2.03;;;1.00;;
35632;SDS011;21754;48.216;-1.628;2024-01-06T02:50:06;2.55;;;0.95;;
35632;SDS011;21754;48.216;-1.628;2024-01-06T02:52:32;1.20;;;0.90;;
35632;SDS011;21754;48.216;-1.628;2024-01-06T02:54:58;3.05;;;1.33;;
35632;SDS011;21754;48.216;-1.628;2024-01-06T02:57:24;4.78;;;1.65;;
35632;SDS011;21754;48.216;-1.628;2024-01-06T02:59:50;3.10;;;1.23;;
35632;SDS011;21754;48.216;-1.628;2024-01-06T03:02:16;1.98;;;1.10;;
35632;SDS011;21754;48.216;-1.628;2024-01-06T03:04:42;7.10;;;1.23;;
35632;SDS011;21754;48.216;-1.628;2024-01-06T03:07:08;1.00;;;0.88;;
35632;SDS011;21754;48.216;-1.628;2024-01-06T03:09:35;2.05;;;1.08;;
35632;SDS011;21754;48.216;-1.628;2024-01-06T03:12:01;1.10;;;1.00;;
35632;SDS011;21754;48.216;-1.628;2024-01-06T03:14:27;1.33;;;1.23;;
35632;SDS011;21754;48.216;-1.628;2024-01-06T03:16:53;4.13;;;0.80;;
35632;SDS011;21754;48.216;-1.628;2024-01-06T03:19:19;1.10;;;1.00;;
35632;SDS011;21754;48.216;-1.628;2024-01-06T03:21:45;1.75;;;0.80;;
35632;SDS011;21754;48.216;-1.628;2024-01-06T03:24:11;4.53;;;1.20;;
35632;SDS011;21754;48.216;-1.628;2024-01-06T03:26:37;1.02;;;0.70;;
35632;SDS011;21754;48.216;-1.628;2024-01-06T03:29:03;1.48;;;0.95;;
35632;SDS011;21754;48.216;-1.628;2024-01-06T03:31:29;1.70;;;1.60;;
35632;SDS011;21754;48.216;-1.628;2024-01-06T03:33:56;2.95;;;1.13;;
35632;SDS011;21754;48.216;-1.628;2024-01-06T03:36:23;0.82;;;0.82;;
35632;SDS011;21754;48.216;-1.628;2024-01-06T03:38:49;2.15;;;1.02;;
35632;SDS011;21754;48.216;-1.628;2024-01-06T03:41:15;2.35;;;1.42;;
35632;SDS011;21754;48.216;-1.628;2024-01-06T03:43:41;1.10;;;0.95;;
35632;SDS011;21754;48.216;-1.628;2024-01-06T03:46:07;1.15;;;1.05;;
35632;SDS011;21754;48.216;-1.628;2024-01-06T03:48:33;2.88;;;1.15;;
35632;SDS011;21754;48.216;-1.628;2024-01-06T03:50:59;1.10;;;1.00;;
35632;SDS011;21754;48.216;-1.628;2024-01-06T03:53:25;1.08;;;0.80;;
35632;SDS011;21754;48.216;-1.628;2024-01-06T03:55:51;2.92;;;0.90;;
35632;SDS011;21754;48.216;-1.628;2024-01-06T03:58:17;0.82;;;0.82;;
35632;SDS011;21754;48.216;-1.628;2024-01-06T04:00:43;1.58;;;0.70;;
35632;SDS011;21754;48.216;-1.628;2024-01-06T04:03:09;4.22;;;1.40;;
35632;SDS011;21754;48.216;-1.628;2024-01-06T04:05:35;2.15;;;0.80;;
35632;SDS011;21754;48.216;-1.628;2024-01-06T04:08:01;4.30;;;0.77;;
35632;SDS011;21754;48.216;-1.628;2024-01-06T04:10:27;1.27;;;0.73;;
35632;SDS011;21754;48.216;-1.628;2024-01-06T04:12:53;2.95;;;0.75;;
35632;SDS011;21754;48.216;-1.628;2024-01-06T04:15:19;2.17;;;1.13;;
35632;SDS011;21754;48.216;-1.628;2024-01-06T04:17:47;0.95;;;0.60;;
35632;SDS011;21754;48.216;-1.628;2024-01-06T04:20:14;5.45;;;1.10;;
35632;SDS011;21754;48.216;-1.628;2024-01-06T04:22:40;2.15;;;1.20;;
35632;SDS011;21754;48.216;-1.628;2024-01-06T04:25:06;4.40;;;0.98;;
35632;SDS011;21754;48.216;-1.628;2024-01-06T04:27:32;1.05;;;0.75;;
35632;SDS011;21754;48.216;-1.628;2024-01-06T04:30:00;1.20;;;1.10;;
35632;SDS011;21754;48.216;-1.628;2024-01-06T04:32:26;6.78;;;0.85;;
35632;SDS011;21754;48.216;-1.628;2024-01-06T04:34:52;1.35;;;0.63;;
35632;SDS011;21754;48.216;-1.628;2024-01-06T04:37:18;6.82;;;0.90;;
35632;SDS011;21754;48.216;-1.628;2024-01-06T04:39:44;3.80;;;1.42;;
35632;SDS011;21754;48.216;-1.628;2024-01-06T04:42:09;0.90;;;0.90;;
35632;SDS011;21754;48.216;-1.628;2024-01-06T04:44:35;0.70;;;0.70;;
35632;SDS011;21754;48.216;-1.628;2024-01-06T04:47:02;2.13;;;0.73;;
35632;SDS011;21754;48.216;-1.628;2024-01-06T04:49:28;3.67;;;0.85;;
35632;SDS011;21754;48.216;-1.628;2024-01-06T04:51:54;17.20;;;1.88;;
35632;SDS011;21754;48.216;-1.628;2024-01-06T04:54:20;0.73;;;0.73;;
35632;SDS011;21754;48.216;-1.628;2024-01-06T04:56:46;1.38;;;1.17;;
35632;SDS011;21754;48.216;-1.628;2024-01-06T04:59:13;3.15;;;0.70;;
35632;SDS011;21754;48.216;-1.628;2024-01-06T05:01:39;3.80;;;0.80;;
35632;SDS011;21754;48.216;-1.628;2024-01-06T05:04:05;3.28;;;0.55;;
35632;SDS011;21754;48.216;-1.628;2024-01-06T05:06:31;8.18;;;0.60;;
35632;SDS011;21754;48.216;-1.628;2024-01-06T05:08:57;3.05;;;0.43;;
35632;SDS011;21754;48.216;-1.628;2024-01-06T05:11:23;0.70;;;0.70;;
35632;SDS011;21754;48.216;-1.628;2024-01-06T05:13:48;0.70;;;0.55;;
35632;SDS011;21754;48.216;-1.628;2024-01-06T05:16:14;1.65;;;0.47;;
35632;SDS011;21754;48.216;-1.628;2024-01-06T05:18:40;0.80;;;0.70;;
35632;SDS011;21754;48.216;-1.628;2024-01-06T05:21:06;1.27;;;0.50;;
35632;SDS011;21754;48.216;-1.628;2024-01-06T05:23:33;0.60;;;0.60;;
35632;SDS011;21754;48.216;-1.628;2024-01-06T05:25:59;0.52;;;0.52;;
35632;SDS011;21754;48.216;-1.628;2024-01-06T05:28:25;1.20;;;0.50;;
35632;SDS011;21754;48.216;-1.628;2024-01-06T05:30:51;0.47;;;0.47;;
35632;SDS011;21754;48.216;-1.628;2024-01-06T05:33:17;0.95;;;0.50;;
35632;SDS011;21754;48.216;-1.628;2024-01-06T05:35:43;1.17;;;0.68;;
35632;SDS011;21754;48.216;-1.628;2024-01-06T05:38:09;0.50;;;0.50;;
35632;SDS011;21754;48.216;-1.628;2024-01-06T05:40:35;0.70;;;0.60;;
35632;SDS011;21754;48.216;-1.628;2024-01-06T05:43:01;0.98;;;0.68;;
35632;SDS011;21754;48.216;-1.628;2024-01-06T05:45:27;1.10;;;0.50;;
35632;SDS011;21754;48.216;-1.628;2024-01-06T05:47:53;5.90;;;0.95;;
35632;SDS011;21754;48.216;-1.628;2024-01-06T05:50:19;1.35;;;0.80;;
35632;SDS011;21754;48.216;-1.628;2024-01-06T05:52:45;0.55;;;0.52;;
35632;SDS011;21754;48.216;-1.628;2024-01-06T05:57:39;0.75;;;0.75;;
35632;SDS011;21754;48.216;-1.628;2024-01-06T06:00:08;0.30;;;0.30;;
35632;SDS011;21754;48.216;-1.628;2024-01-06T06:02:36;1.50;;;0.70;;
35632;SDS011;21754;48.216;-1.628;2024-01-06T06:05:02;0.40;;;0.40;;
35632;SDS011;21754;48.216;-1.628;2024-01-06T06:07:28;0.60;;;0.60;;
35632;SDS011;21754;48.216;-1.628;2024-01-06T06:09:54;0.60;;;0.60;;
35632;SDS011;21754;48.216;-1.628;2024-01-06T06:12:20;0.60;;;0.50;;
35632;SDS011;21754;48.216;-1.628;2024-01-06T06:14:46;1.15;;;1.15;;
35632;SDS011;21754;48.216;-1.628;2024-01-06T06:17:12;1.90;;;0.52;;
35632;SDS011;21754;48.216;-1.628;2024-01-06T06:19:38;0.40;;;0.40;;
35632;SDS011;21754;48.216;-1.628;2024-01-06T06:22:04;0.73;;;0.63;;
35632;SDS011;21754;48.216;-1.628;2024-01-06T06:24:30;1.58;;;0.50;;
35632;SDS011;21754;48.216;-1.628;2024-01-06T06:26:56;0.55;;;0.55;;
35632;SDS011;21754;48.216;-1.628;2024-01-06T06:29:22;0.57;;;0.57;;
35632;SDS011;21754;48.216;-1.628;2024-01-06T06:31:49;1.35;;;0.82;;
35632;SDS011;21754;48.216;-1.628;2024-01-06T06:34:15;5.75;;;1.15;;
35632;SDS011;21754;48.216;-1.628;2024-01-06T06:36:41;0.63;;;0.63;;
35632;SDS011;21754;48.216;-1.628;2024-01-06T06:39:07;2.78;;;0.60;;
35632;SDS011;21754;48.216;-1.628;2024-01-06T06:41:33;2.38;;;0.77;;
35632;SDS011;21754;48.216;-1.628;2024-01-06T06:43:59;2.05;;;0.52;;
35632;SDS011;21754;48.216;-1.628;2024-01-06T06:46:25;1.35;;;0.68;;
35632;SDS011;21754;48.216;-1.628;2024-01-06T06:48:51;2.40;;;0.93;;
35632;SDS011;21754;48.216;-1.628;2024-01-06T06:51:17;0.57;;;0.57;;
35632;SDS011;21754;48.216;-1.628;2024-01-06T06:53:43;3.25;;;0.70;;
35632;SDS011;21754;48.216;-1.628;2024-01-06T06:56:09;9.80;;;1.00;;
35632;SDS011;21754;48.216;-1.628;2024-01-06T06:58:35;5.15;;;0.90;;
35632;SDS011;21754;48.216;-1.628;2024-01-06T07:01:01;0.65;;;0.63;;
35632;SDS011;21754;48.216;-1.628;2024-01-06T07:03:27;0.55;;;0.55;;
35632;SDS011;21754;48.216;-1.628;2024-01-06T07:05:53;2.42;;;0.68;;
35632;SDS011;21754;48.216;-1.628;2024-01-06T07:08:19;2.83;;;0.73;;
35632;SDS011;21754;48.216;-1.628;2024-01-06T07:10:45;1.80;;;1.70;;
35632;SDS011;21754;48.216;-1.628;2024-01-06T07:13:11;1.65;;;1.55;;
35632;SDS011;21754;48.216;-1.628;2024-01-06T07:15:37;1.63;;;0.95;;
35632;SDS011;21754;48.216;-1.628;2024-01-06T07:18:03;8.57;;;1.25;;
35632;SDS011;21754;48.216;-1.628;2024-01-06T07:20:29;1.15;;;1.05;;
35632;SDS011;21754;48.216;-1.628;2024-01-06T07:22:55;2.75;;;0.98;;
35632;SDS011;21754;48.216;-1.628;2024-01-06T07:25:21;5.45;;;1.77;;
35632;SDS011;21754;48.216;-1.628;2024-01-06T07:27:47;3.72;;;3.42;;
35632;SDS011;21754;48.216;-1.628;2024-01-06T07:30:13;12.98;;;8.93;;
35632;SDS011;21754;48.216;-1.628;2024-01-06T07:32:39;6.03;;;5.53;;
35632;SDS011;21754;48.216;-1.628;2024-01-06T07:35:06;19.95;;;11.48;;
35632;SDS011;21754;48.216;-1.628;2024-01-06T07:37:32;3.50;;;2.80;;
35632;SDS011;21754;48.216;-1.628;2024-01-06T07:39:58;4.05;;;3.35;;
35632;SDS011;21754;48.216;-1.628;2024-01-06T07:42:24;18.67;;;10.98;;
35632;SDS011;21754;48.216;-1.628;2024-01-06T07:44:50;18.13;;;11.70;;
35632;SDS011;21754;48.216;-1.628;2024-01-06T07:47:16;12.63;;;5.47;;
35632;SDS011;21754;48.216;-1.628;2024-01-06T07:49:42;2.72;;;1.10;;
35632;SDS011;21754;48.216;-1.628;2024-01-06T07:52:08;0.93;;;0.90;;
35632;SDS011;21754;48.216;-1.628;2024-01-06T07:54:34;2.00;;;0.85;;
35632;SDS011;21754;48.216;-1.628;2024-01-06T07:57:00;2.55;;;1.13;;
35632;SDS011;21754;48.216;-1.628;2024-01-06T07:59:27;6.35;;;1.67;;
35632;SDS011;21754;48.216;-1.628;2024-01-06T08:01:53;1.30;;;1.20;;
35632;SDS011;21754;48.216;-1.628;2024-01-06T08:04:19;0.95;;;0.90;;
35632;SDS011;21754;48.216;-1.628;2024-01-06T08:06:45;6.65;;;1.10;;
35632;SDS011;21754;48.216;-1.628;2024-01-06T08:09:11;0.60;;;0.60;;
35632;SDS011;21754;48.216;-1.628;2024-01-06T08:11:37;1.40;;;1.30;;
35632;SDS011;21754;48.216;-1.628;2024-01-06T08:14:04;1.48;;;1.00;;
35632;SDS011;21754;48.216;-1.628;2024-01-06T08:16:30;2.92;;;0.85;;
35632;SDS011;21754;48.216;-1.628;2024-01-06T08:18:57;5.70;;;1.52;;
35632;SDS011;21754;48.216;-1.628;2024-01-06T08:21:23;8.90;;;1.52;;
35632;SDS011;21754;48.216;-1.628;2024-01-06T08:23:49;2.00;;;1.30;;
35632;SDS011;21754;48.216;-1.628;2024-01-06T08:26:15;2.65;;;1.33;;
35632;SDS011;21754;48.216;-1.628;2024-01-06T08:28:41;4.03;;;0.93;;
35632;SDS011;21754;48.216;-1.628;2024-01-06T08:31:07;2.15;;;1.10;;
35632;SDS011;21754;48.216;-1.628;2024-01-06T08:33:33;5.68;;;1.67;;
35632;SDS011;21754;48.216;-1.628;2024-01-06T08:35:59;1.90;;;0.98;;
35632;SDS011;21754;48.216;-1.628;2024-01-06T08:38:25;4.30;;;1.70;;
35632;SDS011;21754;48.216;-1.628;2024-01-06T08:40:51;1.23;;;1.13;;
35632;SDS011;21754;48.216;-1.628;2024-01-06T08:43:18;7.80;;;1.17;;
35632;SDS011;21754;48.216;-1.628;2024-01-06T08:45:44;2.10;;;1.00;;
35632;SDS011;21754;48.216;-1.628;2024-01-06T08:48:10;1.20;;;1.13;;
35632;SDS011;21754;48.216;-1.628;2024-01-06T08:50:38;4.20;;;0.95;;
35632;SDS011;21754;48.216;-1.628;2024-01-06T08:53:04;2.05;;;0.90;;
35632;SDS011;21754;48.216;-1.628;2024-01-06T08:55:30;2.80;;;1.48;;
35632;SDS011;21754;48.216;-1.628;2024-01-06T08:57:56;6.80;;;1.45;;
35632;SDS011;21754;48.216;-1.628;2024-01-06T09:00:22;5.13;;;1.10;;
35632;SDS011;21754;48.216;-1.628;2024-01-06T09:02:48;2.70;;;0.90;;
35632;SDS011;21754;48.216;-1.628;2024-01-06T09:05:14;5.28;;;1.10;;
35632;SDS011;21754;48.216;-1.628;2024-01-06T09:07:40;0.82;;;0.82;;
35632;SDS011;21754;48.216;-1.628;2024-01-06T09:10:06;7.35;;;1.63;;
35632;SDS011;21754;48.216;-1.628;2024-01-06T09:12:32;4.38;;;0.90;;
35632;SDS011;21754;48.216;-1.628;2024-01-06T09:14:58;1.23;;;0.90;;
35632;SDS011;21754;48.216;-1.628;2024-01-06T09:17:24;1.85;;;1.30;;
35632;SDS011;21754;48.216;-1.628;2024-01-06T09:19:50;6.63;;;1.27;;
35632;SDS011;21754;48.216;-1.628;2024-01-06T09:22:18;3.38;;;0.70;;
35632;SDS011;21754;48.216;-1.628;2024-01-06T09:24:44;0.73;;;0.70;;
35632;SDS011;21754;48.216;-1.628;2024-01-06T09:27:10;3.15;;;1.63;;
35632;SDS011;21754;48.216;-1.628;2024-01-06T09:29:37;4.43;;;1.10;;
35632;SDS011;21754;48.216;-1.628;2024-01-06T09:32:03;16.83;;;1.08;;
35632;SDS011;21754;48.216;-1.628;2024-01-06T09:34:30;3.10;;;1.02;;
35632;SDS011;21754;48.216;-1.628;2024-01-06T09:36:56;4.35;;;1.00;;
35632;SDS011;21754;48.216;-1.628;2024-01-06T09:39:22;0.60;;;0.50;;
35632;SDS011;21754;48.216;-1.628;2024-01-06T09:41:48;8.70;;;0.93;;
35632;SDS011;21754;48.216;-1.628;2024-01-06T09:44:14;14.52;;;1.75;;
35632;SDS011;21754;48.216;-1.628;2024-01-06T09:46:40;1.60;;;0.80;;
35632;SDS011;21754;48.216;-1.628;2024-01-06T09:49:07;8.70;;;1.17;;
35632;SDS011;21754;48.216;-1.628;2024-01-06T09:51:34;6.53;;;0.93;;
35632;SDS011;21754;48.216;-1.628;2024-01-06T09:54:01;2.97;;;1.38;;
35632;SDS011;21754;48.216;-1.628;2024-01-06T09:56:29;3.10;;;1.25;;
35632;SDS011;21754;48.216;-1.628;2024-01-06T09:58:55;2.63;;;1.02;;
35632;SDS011;21754;48.216;-1.628;2024-01-06T10:01:22;4.63;;;1.42;;
35632;SDS011;21754;48.216;-1.628;2024-01-06T10:03:48;4.85;;;0.90;;
35632;SDS011;21754;48.216;-1.628;2024-01-06T10:06:14;1.60;;;1.50;;
35632;SDS011;21754;48.216;-1.628;2024-01-06T10:08:43;6.43;;;1.75;;
35632;SDS011;21754;48.216;-1.628;2024-01-06T10:11:09;1.60;;;0.85;;
35632;SDS011;21754;48.216;-1.628;2024-01-06T10:13:36;3.85;;;1.25;;
35632;SDS011;21754;48.216;-1.628;2024-01-06T10:16:05;2.33;;;0.85;;
35632;SDS011;21754;48.216;-1.628;2024-01-06T10:18:31;0.80;;;0.80;;
35632;SDS011;21754;48.216;-1.628;2024-01-06T10:20:58;1.85;;;0.90;;
35632;SDS011;21754;48.216;-1.628;2024-01-06T10:23:25;4.43;;;1.88;;
35632;SDS011;21754;48.216;-1.628;2024-01-06T10:28:18;10.10;;;1.48;;
35632;SDS011;21754;48.216;-1.628;2024-01-06T10:30:44;3.83;;;1.05;;
35632;SDS011;21754;48.216;-1.628;2024-01-06T10:33:10;4.45;;;2.13;;
35632;SDS011;21754;48.216;-1.628;2024-01-06T10:35:38;2.60;;;1.20;;
35632;SDS011;21754;48.216;-1.628;2024-01-06T10:38:04;6.75;;;1.27;;
35632;SDS011;21754;48.216;-1.628;2024-01-06T10:40:30;4.82;;;1.23;;
35632;SDS011;21754;48.216;-1.628;2024-01-06T10:42:56;3.53;;;1.50;;
35632;SDS011;21754;48.216;-1.628;2024-01-06T10:45:23;9.27;;;1.92;;
35632;SDS011;21754;48.216;-1.628;2024-01-06T10:47:49;3.03;;;0.88;;
35632;SDS011;21754;48.216;-1.628;2024-01-06T10:50:18;8.50;;;1.17;;
35632;SDS011;21754;48.216;-1.628;2024-01-06T10:52:46;1.65;;;1.23;;
35632;SDS011;21754;48.216;-1.628;2024-01-06T10:55:13;3.63;;;1.25;;
35632;SDS011;21754;48.216;-1.628;2024-01-06T10:57:43;0.95;;;0.95;;
35632;SDS011;21754;48.216;-1.628;2024-01-06T11:00:12;3.17;;;1.20;;
35632;SDS011;21754;48.216;-1.628;2024-01-06T11:02:39;7.32;;;2.45;;
35632;SDS011;21754;48.216;-1.628;2024-01-06T11:05:05;0.98;;;0.82;;
35632;SDS011;21754;48.216;-1.628;2024-01-06T11:07:35;1.63;;;0.80;;
35632;SDS011;21754;48.216;-1.628;2024-01-06T11:12:28;8.75;;;1.50;;
35632;SDS011;21754;48.216;-1.628;2024-01-06T11:14:54;3.83;;;0.95;;
35632;SDS011;21754;48.216;-1.628;2024-01-06T11:20:05;1.30;;;0.85;;
35632;SDS011;21754;48.216;-1.628;2024-01-06T11:22:31;7.60;;;1.65;;
35632;SDS011;21754;48.216;-1.628;2024-01-06T11:25:05;4.55;;;1.23;;
35632;SDS011;21754;48.216;-1.628;2024-01-06T11:27:32;3.28;;;1.40;;
35632;SDS011;21754;48.216;-1.628;2024-01-06T11:29:59;1.50;;;1.10;;
35632;SDS011;21754;48.216;-1.628;2024-01-06T11:32:29;6.65;;;1.13;;
35632;SDS011;21754;48.216;-1.628;2024-01-06T11:34:55;3.30;;;1.23;;
35632;SDS011;21754;48.216;-1.628;2024-01-06T11:37:34;4.68;;;2.47;;
35632;SDS011;21754;48.216;-1.628;2024-01-06T11:40:07;0.75;;;0.73;;
35632;SDS011;21754;48.216;-1.628;2024-01-06T11:42:34;5.00;;;1.40;;
35632;SDS011;21754;48.216;-1.628;2024-01-06T11:45:04;2.35;;;1.50;;
35632;SDS011;21754;48.216;-1.628;2024-01-06T11:47:31;7.75;;;1.73;;
35632;SDS011;21754;48.216;-1.628;2024-01-06T11:49:57;6.82;;;1.73;;
35632;SDS011;21754;48.216;-1.628;2024-01-06T11:52:24;5.35;;;1.13;;
35632;SDS011;21754;48.216;-1.628;2024-01-06T11:54:54;2.97;;;1.63;;
35632;SDS011;21754;48.216;-1.628;2024-01-06T11:57:21;7.75;;;1.65;;
35632;SDS011;21754;48.216;-1.628;2024-01-06T11:59:47;7.43;;;1.10;;
35632;SDS011;21754;48.216;-1.628;2024-01-06T12:02:16;3.70;;;1.15;;
35632;SDS011;21754;48.216;-1.628;2024-01-06T12:04:44;6.28;;;1.30;;
35632;SDS011;21754;48.216;-1.628;2024-01-06T12:07:13;13.82;;;1.70;;
35632;SDS011;21754;48.216;-1.628;2024-01-06T12:09:40;1.30;;;1.20;;
35632;SDS011;21754;48.216;-1.628;2024-01-06T12:12:06;4.65;;;1.08;;
35632;SDS011;21754;48.216;-1.628;2024-01-06T12:14:32;1.58;;;0.82;;
35632;SDS011;21754;48.216;-1.628;2024-01-06T12:16:58;2.85;;;0.95;;
35632;SDS011;21754;48.216;-1.628;2024-01-06T12:19:31;1.85;;;1.25;;
35632;SDS011;21754;48.216;-1.628;2024-01-06T12:21:58;5.05;;;1.52;;
35632;SDS011;21754;48.216;-1.628;2024-01-06T12:24:26;4.50;;;1.10;;
35632;SDS011;21754;48.216;-1.628;2024-01-06T12:26:52;5.65;;;1.45;;
35632;SDS011;21754;48.216;-1.628;2024-01-06T12:29:18;4.75;;;1.52;;
35632;SDS011;21754;48.216;-1.628;2024-01-06T12:31:44;1.10;;;1.00;;
35632;SDS011;21754;48.216;-1.628;2024-01-06T12:34:10;7.18;;;0.98;;
35632;SDS011;21754;48.216;-1.628;2024-01-06T12:36:37;0.90;;;0.90;;
35632;SDS011;21754;48.216;-1.628;2024-01-06T12:39:04;9.63;;;1.20;;
35632;SDS011;21754;48.216;-1.628;2024-01-06T12:41:30;3.65;;;1.42;;
35632;SDS011;21754;48.216;-1.628;2024-01-06T12:44:00;8.05;;;3.75;;
35632;SDS011;21754;48.216;-1.628;2024-01-06T12:46:27;14.55;;;1.85;;
35632;SDS011;21754;48.216;-1.628;2024-01-06T12:48:53;1.02;;;1.02;;
35632;SDS011;21754;48.216;-1.628;2024-01-06T12:51:19;10.98;;;1.88;;
35632;SDS011;21754;48.216;-1.628;2024-01-06T12:53:45;5.78;;;1.23;;
35632;SDS011;21754;48.216;-1.628;2024-01-06T12:56:11;1.73;;;0.85;;
35632;SDS011;21754;48.216;-1.628;2024-01-06T13:01:05;8.40;;;1.70;;
35632;SDS011;21754;48.216;-1.628;2024-01-06T13:03:32;10.35;;;1.10;;
35632;SDS011;21754;48.216;-1.628;2024-01-06T13:05:58;4.43;;;0.98;;
35632;SDS011;21754;48.216;-1.628;2024-01-06T13:08:24;10.43;;;1.20;;
35632;SDS011;21754;48.216;-1.628;2024-01-06T13:10:50;9.90;;;1.65;;
35632;SDS011;21754;48.216;-1.628;2024-01-06T13:13:16;3.63;;;1.35;;
35632;SDS011;21754;48.216;-1.628;2024-01-06T13:15:42;7.00;;;1.63;;
35632;SDS011;21754;48.216;-1.628;2024-01-06T13:18:08;6.65;;;1.60;;
35632;SDS011;21754;48.216;-1.628;2024-01-06T13:20:35;4.97;;;0.90;;
35632;SDS011;21754;48.216;-1.628;2024-01-06T13:23:05;6.18;;;1.33;;
35632;SDS011;21754;48.216;-1.628;2024-01-06T13:25:31;1.55;;;1.20;;
35632;SDS011;21754;48.216;-1.628;2024-01-06T13:27:58;3.47;;;1.10;;
35632;SDS011;21754;48.216;-1.628;2024-01-06T13:30:24;3.85;;;0.95;;
35632;SDS011;21754;48.216;-1.628;2024-01-06T13:32:51;8.50;;;2.22;;
35632;SDS011;21754;48.216;-1.628;2024-01-06T13:35:19;5.70;;;1.00;;
35632;SDS011;21754;48.216;-1.628;2024-01-06T13:37:45;7.70;;;1.45;;
35632;SDS011;21754;48.216;-1.628;2024-01-06T13:40:13;2.83;;;1.38;;
35632;SDS011;21754;48.216;-1.628;2024-01-06T13:42:39;5.28;;;1.40;;
35632;SDS011;21754;48.216;-1.628;2024-01-06T13:45:06;8.57;;;1.10;;
35632;SDS011;21754;48.216;-1.628;2024-01-06T13:47:32;5.13;;;1.75;;
35632;SDS011;21754;48.216;-1.628;2024-01-06T13:49:58;21.20;;;2.58;;
35632;SDS011;21754;48.216;-1.628;2024-01-06T13:52:24;3.83;;;1.08;;
35632;SDS011;21754;48.216;-1.628;2024-01-06T13:54:51;9.63;;;1.15;;
35632;SDS011;21754;48.216;-1.628;2024-01-06T13:57:17;2.45;;;1.13;;
35632;SDS011;21754;48.216;-1.628;2024-01-06T13:59:43;10.40;;;1.50;;
35632;SDS011;21754;48.216;-1.628;2024-01-06T14:02:09;6.05;;;0.95;;
35632;SDS011;21754;48.216;-1.628;2024-01-06T14:04:35;2.95;;;1.25;;
35632;SDS011;21754;48.216;-1.628;2024-01-06T14:07:01;7.57;;;1.15;;
35632;SDS011;21754;48.216;-1.628;2024-01-06T14:09:28;9.70;;;2.35;;
35632;SDS011;21754;48.216;-1.628;2024-01-06T14:11:54;8.98;;;1.13;;
35632;SDS011;21754;48.216;-1.628;2024-01-06T14:14:20;10.10;;;3.00;;
35632;SDS011;21754;48.216;-1.628;2024-01-06T14:16:46;7.95;;;1.75;;
35632;SDS011;21754;48.216;-1.628;2024-01-06T14:19:13;7.18;;;2.03;;
35632;SDS011;21754;48.216;-1.628;2024-01-06T14:21:39;8.35;;;1.10;;
35632;SDS011;21754;48.216;-1.628;2024-01-06T14:24:05;6.05;;;0.93;;
35632;SDS011;21754;48.216;-1.628;2024-01-06T14:26:32;8.07;;;1.77;;
35632;SDS011;21754;48.216;-1.628;2024-01-06T14:28:58;6.75;;;1.13;;
35632;SDS011;21754;48.216;-1.628;2024-01-06T14:31:24;5.22;;;1.75;;
35632;SDS011;21754;48.216;-1.628;2024-01-06T14:33:52;2.38;;;1.15;;
35632;SDS011;21754;48.216;-1.628;2024-01-06T14:36:18;10.93;;;0.85;;
35632;SDS011;21754;48.216;-1.628;2024-01-06T14:38:44;1.40;;;1.30;;
35632;SDS011;21754;48.216;-1.628;2024-01-06T14:41:10;3.17;;;1.80;;